Time;durP1;ratioP1;P1;durP2;ratioP2;P2;SDS_P1;SDS_P2;PMS_P1;PMS_P2;Temp;Humidity;BMP_temperature;BMP_pressure;BME280_temperature;BME280_humidity;BME280_pressure;Samples;Min_cycle;Max_cycle;Signal;HPM_P1;HPM_P2
2022/01/02 00:01:04;;;;;;;1.53;1.30;;;;;;;;;;6289407;28;20507;-79
2022/01/02 00:04:16;;;;;;;1.57;1.57;;;;;;;;;;6290212;28;20213;-78
2022/01/02 00:07:26;;;;;;;1.30;1.30;;;;;;;;;;6289022;28;20191;-79
2022/01/02 00:10:32;;;;;;;1.27;1.27;;;;;;;;;;6289813;28;20383;-79
2022/01/02 00:13:37;;;;;;;1.47;1.37;;;;;;;;;;6290603;28;20190;-78
2022/01/02 00:16:42;;;;;;;1.20;1.20;;;;;;;;;;6290470;28;20255;-78
2022/01/02 00:19:52;;;;;;;1.10;1.10;;;;;;;;;;6291024;28;20230;-79
2022/01/02 00:23:00;;;;;;;1.27;1.27;;;;;;;;;;6289247;28;20352;-79
2022/01/02 00:26:05;;;;;;;1.40;1.40;;;;;;;;;;6289515;28;20193;-78
2022/01/02 00:29:11;;;;;;;1.50;1.40;;;;;;;;;;6322973;28;20199;-79
2022/01/02 00:32:16;;;;;;;1.50;1.50;;;;;;;;;;6290994;28;20222;-79
2022/01/02 00:35:22;;;;;;;2.43;1.43;;;;;;;;;;6290994;28;20254;-79
2022/01/02 00:38:28;;;;;;;1.43;1.23;;;;;;;;;;6291253;28;20225;-79
2022/01/02 00:41:35;;;;;;;1.40;1.30;;;;;;;;;;6288843;28;20206;-79
2022/01/02 00:44:48;;;;;;;1.57;1.57;;;;;;;;;;6290136;28;20194;-79
2022/01/02 00:47:58;;;;;;;1.10;1.10;;;;;;;;;;6288749;28;20245;-79
2022/01/02 00:51:05;;;;;;;1.60;1.60;;;;;;;;;;6290151;28;20214;-79
2022/01/02 00:54:14;;;;;;;1.20;1.20;;;;;;;;;;6289132;28;20265;-79
2022/01/02 00:57:19;;;;;;;1.00;1.00;;;;;;;;;;6287945;28;20202;-79
2022/01/02 01:00:25;;;;;;;1.10;1.10;;;;;;;;;;6288157;28;20206;-78
2022/01/02 01:03:32;;;;;;;1.20;1.20;;;;;;;;;;6290351;28;20185;-79
2022/01/02 01:06:39;;;;;;;1.70;1.70;;;;;;;;;;6289312;28;20209;-79
2022/01/02 01:09:47;;;;;;;1.07;1.07;;;;;;;;;;6290000;28;20207;-79
2022/01/02 01:12:54;;;;;;;1.10;1.10;;;;;;;;;;6290346;28;20528;-79
2022/01/02 01:15:58;;;;;;;1.40;1.40;;;;;;;;;;6290185;28;20213;-79
2022/01/02 01:19:03;;;;;;;1.40;1.40;;;;;;;;;;6290777;28;20188;-79
2022/01/02 01:22:08;;;;;;;1.40;1.30;;;;;;;;;;6293429;28;20434;-79
2022/01/02 01:25:18;;;;;;;1.20;1.20;;;;;;;;;;6292861;28;20193;-79
2022/01/02 01:28:22;;;;;;;1.07;1.07;;;;;;;;;;6292816;28;20204;-79
2022/01/02 01:31:26;;;;;;;1.17;1.17;;;;;;;;;;6292712;28;20210;-79
2022/01/02 01:34:31;;;;;;;1.30;1.30;;;;;;;;;;6294148;28;20187;-79
2022/01/02 01:37:36;;;;;;;1.03;1.03;;;;;;;;;;6293151;28;20205;-79
2022/01/02 01:40:46;;;;;;;1.00;1.00;;;;;;;;;;6293392;28;20280;-80
2022/01/02 01:44:06;;;;;;;1.27;1.27;;;;;;;;;;6292984;28;20211;-79
2022/01/02 01:47:13;;;;;;;2.83;1.20;;;;;;;;;;6292049;28;20231;-79
2022/01/02 01:50:19;;;;;;;1.10;1.10;;;;;;;;;;6293062;28;20261;-79
2022/01/02 01:53:25;;;;;;;1.13;1.13;;;;;;;;;;6294304;28;20186;-79
2022/01/02 01:56:32;;;;;;;1.30;1.30;;;;;;;;;;6292848;28;20203;-79
2022/01/02 01:59:36;;;;;;;1.10;1.10;;;;;;;;;;6291783;28;20202;-79
2022/01/02 02:02:41;;;;;;;1.00;1.00;;;;;;;;;;6292291;28;20213;-79
2022/01/02 02:05:45;;;;;;;1.20;1.20;;;;;;;;;;6291592;28;20203;-79
2022/01/02 02:08:52;;;;;;;1.00;1.00;;;;;;;;;;6291611;28;20210;-79
2022/01/02 02:12:00;;;;;;;1.17;1.00;;;;;;;;;;6291404;28;20221;-79
2022/01/02 02:15:11;;;;;;;1.00;1.00;;;;;;;;;;6291802;28;20235;-79
2022/01/02 02:18:19;;;;;;;0.90;0.90;;;;;;;;;;6324994;28;20188;-79
2022/01/02 02:21:30;;;;;;;1.10;1.10;;;;;;;;;;6291853;28;20269;-79
2022/01/02 02:24:35;;;;;;;1.00;1.00;;;;;;;;;;6291574;28;20249;-79
2022/01/02 02:27:40;;;;;;;0.97;0.97;;;;;;;;;;6291820;28;20203;-79
2022/01/02 02:30:47;;;;;;;0.90;0.90;;;;;;;;;;6290532;28;20207;-79
2022/01/02 02:33:51;;;;;;;1.17;1.17;;;;;;;;;;6291784;28;20210;-79
2022/01/02 02:36:57;;;;;;;1.10;1.10;;;;;;;;;;6290578;28;20498;-80
2022/01/02 02:40:02;;;;;;;0.80;0.80;;;;;;;;;;6290920;28;20203;-80
2022/01/02 02:43:23;;;;;;;0.90;0.90;;;;;;;;;;6292061;28;20273;-80
2022/01/02 02:49:55;;;;;;;0.90;0.90;;;;;;;;;;6292199;28;20204;-80
2022/01/02 02:53:01;;;;;;;0.90;0.90;;;;;;;;;;6291557;28;20265;-79
2022/01/02 02:56:14;;;;;;;0.90;0.90;;;;;;;;;;6324837;28;20238;-80
2022/01/02 02:59:18;;;;;;;0.90;0.90;;;;;;;;;;6291308;28;20397;-80
2022/01/02 03:02:23;;;;;;;0.80;0.80;;;;;;;;;;6290967;28;20240;-80
2022/01/02 03:05:28;;;;;;;0.90;0.90;;;;;;;;;;6291779;28;20203;-79
2022/01/02 03:08:35;;;;;;;0.60;0.60;;;;;;;;;;6290470;28;20234;-80
2022/01/02 03:11:40;;;;;;;0.80;0.80;;;;;;;;;;6289608;28;20220;-79
2022/01/02 03:14:45;;;;;;;0.80;0.80;;;;;;;;;;6291200;28;20225;-79
2022/01/02 03:17:51;;;;;;;0.77;0.77;;;;;;;;;;6290686;28;20200;-81
2022/01/02 03:20:55;;;;;;;0.87;0.87;;;;;;;;;;6290239;28;20241;-80
2022/01/02 03:24:01;;;;;;;0.83;0.83;;;;;;;;;;6291168;28;20190;-80
2022/01/02 03:27:07;;;;;;;0.73;0.73;;;;;;;;;;6289516;28;20499;-79
2022/01/02 03:30:14;;;;;;;0.90;0.90;;;;;;;;;;6291686;28;20197;-80
2022/01/02 03:33:18;;;;;;;0.93;0.93;;;;;;;;;;6291079;28;20208;-80
2022/01/02 03:36:24;;;;;;;0.90;0.90;;;;;;;;;;6289535;28;20203;-80
2022/01/02 03:39:30;;;;;;;0.80;0.80;;;;;;;;;;6289620;28;20187;-79
2022/01/02 03:42:35;;;;;;;0.90;0.90;;;;;;;;;;6288459;28;20521;-80
2022/01/02 03:45:40;;;;;;;0.90;0.90;;;;;;;;;;6289870;28;20203;-80
2022/01/02 03:48:45;;;;;;;0.80;0.80;;;;;;;;;;6290291;28;20236;-80
2022/01/02 03:51:49;;;;;;;0.90;0.90;;;;;;;;;;6288891;28;20286;-80
2022/01/02 03:54:56;;;;;;;0.80;0.80;;;;;;;;;;6288934;28;20501;-80
2022/01/02 03:58:00;;;;;;;0.90;0.90;;;;;;;;;;6289416;28;20514;-80
2022/01/02 04:01:04;;;;;;;0.70;0.70;;;;;;;;;;6291057;28;20184;-80
2022/01/02 04:04:09;;;;;;;0.80;0.80;;;;;;;;;;6289291;28;20207;-80
2022/01/02 04:07:14;;;;;;;0.77;0.77;;;;;;;;;;6289277;28;20199;-80
2022/01/02 04:10:20;;;;;;;0.73;0.73;;;;;;;;;;6289166;28;20423;-80
2022/01/02 04:13:25;;;;;;;0.90;0.90;;;;;;;;;;6288664;28;20273;-80
2022/01/02 04:16:29;;;;;;;0.80;0.80;;;;;;;;;;6289173;28;20201;-80
2022/01/02 04:19:34;;;;;;;1.00;1.00;;;;;;;;;;6289268;28;20361;-80
2022/01/02 04:22:39;;;;;;;0.83;0.83;;;;;;;;;;6290789;28;20285;-79
2022/01/02 04:25:44;;;;;;;0.80;0.80;;;;;;;;;;6289498;28;20255;-80
2022/01/02 04:28:49;;;;;;;1.00;1.00;;;;;;;;;;6287514;28;20434;-80
2022/01/02 04:31:54;;;;;;;0.70;0.70;;;;;;;;;;6287620;28;20210;-80
2022/01/02 04:34:58;;;;;;;0.80;0.80;;;;;;;;;;6321116;28;20390;-80
2022/01/02 04:38:02;;;;;;;0.80;0.80;;;;;;;;;;6288597;28;20203;-79
2022/01/02 04:41:08;;;;;;;0.80;0.80;;;;;;;;;;6288706;28;20188;-79
2022/01/02 04:44:16;;;;;;;1.50;0.90;;;;;;;;;;6288876;28;20198;-79
2022/01/02 04:47:21;;;;;;;0.80;0.80;;;;;;;;;;6287838;28;20297;-80
2022/01/02 04:50:26;;;;;;;0.90;0.90;;;;;;;;;;6288698;28;20273;-79
2022/01/02 04:53:30;;;;;;;0.80;0.80;;;;;;;;;;6288454;28;20407;-80
2022/01/02 04:56:36;;;;;;;0.90;0.90;;;;;;;;;;6293375;28;20230;-79
2022/01/02 04:59:41;;;;;;;1.00;1.00;;;;;;;;;;6293488;28;20187;-79
2022/01/02 05:02:46;;;;;;;0.90;0.90;;;;;;;;;;6293033;28;20217;-79
2022/01/02 05:05:50;;;;;;;1.00;1.00;;;;;;;;;;6292462;28;20365;-79
2022/01/02 05:08:55;;;;;;;0.90;0.90;;;;;;;;;;6291944;28;20377;-79
2022/01/02 05:12:01;;;;;;;1.00;1.00;;;;;;;;;;6292773;28;20185;-79
2022/01/02 05:15:08;;;;;;;0.93;0.93;;;;;;;;;;6291632;28;20463;-79
2022/01/02 05:18:20;;;;;;;0.80;0.80;;;;;;;;;;6291641;28;20242;-79
2022/01/02 05:21:24;;;;;;;0.93;0.90;;;;;;;;;;6291313;28;20207;-79
2022/01/02 05:24:30;;;;;;;1.00;1.00;;;;;;;;;;6290806;28;20239;-79
2022/01/02 05:27:36;;;;;;;1.00;1.00;;;;;;;;;;6291966;28;20266;-80
2022/01/02 05:30:40;;;;;;;0.97;0.93;;;;;;;;;;6291953;28;20236;-79
2022/01/02 05:33:45;;;;;;;0.80;0.80;;;;;;;;;;6292316;28;20522;-79
2022/01/02 05:36:49;;;;;;;0.80;0.80;;;;;;;;;;6293049;28;20188;-79
2022/01/02 05:39:56;;;;;;;1.00;1.00;;;;;;;;;;6291683;28;20207;-79
2022/01/02 05:43:03;;;;;;;0.90;0.90;;;;;;;;;;6292077;28;20402;-79
2022/01/02 05:46:09;;;;;;;1.03;1.03;;;;;;;;;;6325080;28;20494;-80
2022/01/02 05:49:15;;;;;;;2.77;1.00;;;;;;;;;;6242801;28;20278;-80
2022/01/02 05:52:20;;;;;;;1.20;1.20;;;;;;;;;;6243058;28;20211;-79
2022/01/02 05:55:25;;;;;;;1.10;1.10;;;;;;;;;;6243057;28;20412;-79
2022/01/02 05:58:31;;;;;;;1.17;1.17;;;;;;;;;;6242019;28;20204;-79
2022/01/02 06:01:35;;;;;;;1.13;1.13;;;;;;;;;;6275789;28;20211;-80
2022/01/02 06:04:40;;;;;;;1.00;1.00;;;;;;;;;;6242073;28;20208;-79
2022/01/02 06:07:44;;;;;;;0.83;0.83;;;;;;;;;;6275609;28;20374;-79
2022/01/02 06:10:49;;;;;;;0.83;0.83;;;;;;;;;;6244186;28;20253;-79
2022/01/02 06:13:55;;;;;;;0.80;0.80;;;;;;;;;;6275749;28;20285;-79
2022/01/02 06:17:01;;;;;;;0.90;0.90;;;;;;;;;;6241760;28;20524;-79
2022/01/02 06:20:08;;;;;;;1.00;1.00;;;;;;;;;;6275683;28;20213;-79
2022/01/02 06:23:16;;;;;;;1.00;1.00;;;;;;;;;;6242301;28;20232;-79
2022/01/02 06:26:20;;;;;;;1.20;1.20;;;;;;;;;;6274834;28;20208;-80
2022/01/02 06:29:26;;;;;;;0.97;0.97;;;;;;;;;;6241044;28;20202;-79
2022/01/02 06:32:35;;;;;;;0.80;0.80;;;;;;;;;;6274667;28;20373;-79
2022/01/02 06:35:42;;;;;;;0.90;0.90;;;;;;;;;;6241107;28;20248;-79
2022/01/02 06:38:46;;;;;;;1.00;1.00;;;;;;;;;;6274579;28;20526;-79
2022/01/02 06:41:51;;;;;;;1.20;1.10;;;;;;;;;;6241642;28;20303;-79
2022/01/02 06:44:57;;;;;;;0.90;0.90;;;;;;;;;;6275011;28;20216;-80
2022/01/02 06:48:02;;;;;;;1.80;1.00;;;;;;;;;;6271152;28;20557;-79
2022/01/02 06:51:09;;;;;;;0.87;0.87;;;;;;;;;;6290216;28;20517;-79
2022/01/02 06:54:13;;;;;;;1.10;1.10;;;;;;;;;;6291314;28;20305;-79
2022/01/02 06:57:17;;;;;;;1.10;1.10;;;;;;;;;;6292166;28;20185;-80
2022/01/02 07:00:23;;;;;;;1.00;1.00;;;;;;;;;;6291713;28;20208;-80
2022/01/02 07:03:28;;;;;;;1.00;1.00;;;;;;;;;;6291141;28;20204;-79
2022/01/02 07:06:32;;;;;;;1.00;1.00;;;;;;;;;;6290194;28;20201;-79
2022/01/02 07:09:37;;;;;;;0.90;0.90;;;;;;;;;;6290058;28;20210;-79
2022/01/02 07:12:41;;;;;;;1.33;1.10;;;;;;;;;;6291420;28;20187;-79
2022/01/02 07:15:47;;;;;;;1.23;1.23;;;;;;;;;;6290575;28;20454;-79
2022/01/02 07:18:51;;;;;;;1.27;1.27;;;;;;;;;;6291868;28;20250;-80
2022/01/02 07:21:58;;;;;;;1.43;1.27;;;;;;;;;;6291726;28;20274;-80
2022/01/02 07:25:03;;;;;;;1.40;1.30;;;;;;;;;;6291450;28;20262;-79
2022/01/02 07:28:11;;;;;;;1.80;1.70;;;;;;;;;;6290692;28;20184;-79
2022/01/02 07:31:16;;;;;;;1.53;1.53;;;;;;;;;;6291205;28;20218;-79
2022/01/02 07:34:20;;;;;;;1.30;1.30;;;;;;;;;;6290897;28;20217;-79
2022/01/02 07:37:25;;;;;;;1.57;1.57;;;;;;;;;;6290503;28;20184;-80
2022/01/02 07:40:29;;;;;;;1.43;1.43;;;;;;;;;;6290884;28;20233;-79
2022/01/02 07:43:33;;;;;;;1.47;1.47;;;;;;;;;;6290493;28;20215;-80
2022/01/02 07:46:38;;;;;;;1.27;1.27;;;;;;;;;;6290179;28;20237;-79
2022/01/02 07:49:43;;;;;;;1.30;1.30;;;;;;;;;;6290255;28;20187;-79
2022/01/02 07:52:48;;;;;;;2.13;1.60;;;;;;;;;;6290631;28;20276;-80
2022/01/02 07:55:52;;;;;;;1.40;1.30;;;;;;;;;;6290246;28;20234;-79
2022/01/02 07:58:58;;;;;;;1.70;1.60;;;;;;;;;;6289358;28;20198;-79
2022/01/02 08:02:03;;;;;;;1.60;1.50;;;;;;;;;;6289807;28;20188;-79
2022/01/02 08:05:10;;;;;;;1.73;1.63;;;;;;;;;;6289494;28;20242;-79
2022/01/02 08:08:16;;;;;;;1.50;1.50;;;;;;;;;;6290539;28;20209;-80
2022/01/02 08:11:20;;;;;;;1.53;1.50;;;;;;;;;;6289719;28;20288;-79
2022/01/02 08:14:44;;;;;;;1.83;1.83;;;;;;;;;;6290137;28;20208;-80
2022/01/02 08:17:50;;;;;;;1.60;1.50;;;;;;;;;;6289519;28;20187;-79
2022/01/02 08:20:53;;;;;;;1.37;1.37;;;;;;;;;;6289781;28;20188;-80
2022/01/02 08:23:58;;;;;;;1.37;1.33;;;;;;;;;;6289356;28;20198;-78
2022/01/02 08:27:02;;;;;;;3.83;1.70;;;;;;;;;;6288436;28;20283;-79
2022/01/02 08:30:12;;;;;;;2.73;1.90;;;;;;;;;;6293277;28;20499;-79
2022/01/02 08:33:18;;;;;;;4.00;1.93;;;;;;;;;;6293173;28;20231;-79
2022/01/02 08:36:23;;;;;;;5.60;1.83;;;;;;;;;;6295643;28;20219;-79
2022/01/02 08:39:27;;;;;;;2.03;1.90;;;;;;;;;;6294000;28;20196;-79
2022/01/02 08:42:31;;;;;;;2.10;1.60;;;;;;;;;;6294360;28;20206;-78
2022/01/02 08:45:36;;;;;;;3.50;1.80;;;;;;;;;;6294348;28;20198;-79
2022/01/02 08:48:42;;;;;;;2.73;1.70;;;;;;;;;;6294068;28;20263;-79
2022/01/02 08:51:46;;;;;;;2.23;2.13;;;;;;;;;;6294499;28;20192;-80
2022/01/02 08:54:50;;;;;;;3.80;1.90;;;;;;;;;;6294312;28;20530;-79
2022/01/02 08:57:54;;;;;;;5.07;1.70;;;;;;;;;;6294136;28;20187;-80
2022/01/02 09:01:00;;;;;;;1.70;1.60;;;;;;;;;;6294531;28;20212;-79
2022/01/02 09:04:06;;;;;;;1.70;1.70;;;;;;;;;;6294497;28;20338;-80
2022/01/02 09:07:11;;;;;;;2.17;2.03;;;;;;;;;;6294134;28;20214;-79
2022/01/02 09:10:16;;;;;;;3.47;2.17;;;;;;;;;;6295187;28;20197;-79
2022/01/02 09:13:23;;;;;;;1.93;1.83;;;;;;;;;;6294637;28;20247;-79
2022/01/02 09:16:27;;;;;;;1.90;1.83;;;;;;;;;;6295231;28;20209;-79
2022/01/02 09:19:33;;;;;;;1.83;1.83;;;;;;;;;;6295071;28;20247;-79
2022/01/02 09:22:37;;;;;;;1.83;1.73;;;;;;;;;;6294333;28;20242;-79
2022/01/02 09:25:41;;;;;;;2.00;1.73;;;;;;;;;;6293517;28;20528;-79
2022/01/02 09:28:46;;;;;;;2.30;2.23;;;;;;;;;;6294059;28;20261;-79
2022/01/02 09:31:50;;;;;;;2.50;2.37;;;;;;;;;;6294010;28;20184;-79
2022/01/02 09:34:55;;;;;;;2.20;2.10;;;;;;;;;;6294625;28;20238;-78
2022/01/02 09:38:07;;;;;;;5.00;2.00;;;;;;;;;;6293857;28;20195;-78
2022/01/02 09:41:11;;;;;;;1.90;1.90;;;;;;;;;;6293829;28;20488;-78
2022/01/02 09:44:15;;;;;;;1.83;1.83;;;;;;;;;;6293265;28;20250;-78
2022/01/02 09:47:21;;;;;;;1.93;1.83;;;;;;;;;;6292746;28;20236;-79
2022/01/02 09:50:26;;;;;;;5.77;2.20;;;;;;;;;;6290644;28;20206;-76
2022/01/02 09:53:31;;;;;;;2.43;2.00;;;;;;;;;;6288754;28;20344;-78
2022/01/02 09:56:35;;;;;;;2.27;2.17;;;;;;;;;;6291815;28;20277;-78
2022/01/02 09:59:40;;;;;;;1.93;1.90;;;;;;;;;;6295643;28;20194;-78
2022/01/02 10:02:55;;;;;;;2.23;2.13;;;;;;;;;;6293581;28;20487;-79
2022/01/02 10:06:01;;;;;;;4.53;2.13;;;;;;;;;;6292526;28;20219;-79
2022/01/02 10:09:06;;;;;;;1.97;1.87;;;;;;;;;;6290519;28;20201;-78
2022/01/02 10:12:26;;;;;;;3.07;2.00;;;;;;;;;;6291032;28;20195;-76
2022/01/02 10:15:30;;;;;;;2.30;2.00;;;;;;;;;;6289825;28;20242;-77
2022/01/02 10:18:34;;;;;;;5.90;1.87;;;;;;;;;;6289589;28;20514;-77
2022/01/02 10:21:40;;;;;;;2.53;2.43;;;;;;;;;;6290242;28;20184;-77
2022/01/02 10:24:47;;;;;;;1.87;1.83;;;;;;;;;;6290334;28;20184;-77
2022/01/02 10:27:52;;;;;;;7.37;2.07;;;;;;;;;;6290376;28;20196;-77
2022/01/02 10:30:59;;;;;;;2.13;2.03;;;;;;;;;;6288977;28;20397;-76
2022/01/02 10:34:03;;;;;;;2.37;2.27;;;;;;;;;;6289714;28;20216;-76
2022/01/02 10:37:13;;;;;;;2.20;2.10;;;;;;;;;;6288213;28;20554;-77
2022/01/02 10:40:34;;;;;;;2.27;2.07;;;;;;;;;;6289535;28;20184;-77
2022/01/02 10:43:38;;;;;;;2.40;2.20;;;;;;;;;;6290186;28;20284;-77
2022/01/02 10:47:10;;;;;;;2.80;2.10;;;;;;;;;;6288603;28;20235;-75
2022/01/02 10:50:16;;;;;;;4.43;2.00;;;;;;;;;;6289108;28;20195;-76
2022/01/02 10:53:21;;;;;;;2.50;2.30;;;;;;;;;;6289091;28;20187;-78
2022/01/02 10:56:27;;;;;;;2.23;2.03;;;;;;;;;;6289154;28;20214;-78
2022/01/02 10:59:32;;;;;;;2.43;2.13;;;;;;;;;;6288871;28;20207;-77
2022/01/02 11:02:38;;;;;;;1.90;1.77;;;;;;;;;;6292216;28;20231;-80
2022/01/02 11:05:46;;;;;;;2.07;2.00;;;;;;;;;;6291277;28;20369;-78
2022/01/02 11:08:53;;;;;;;3.53;2.47;;;;;;;;;;6289713;28;20223;-78
2022/01/02 11:11:58;;;;;;;2.30;2.17;;;;;;;;;;6290184;28;20188;-79
2022/01/02 11:15:02;;;;;;;2.00;1.90;;;;;;;;;;6290287;28;20186;-78
2022/01/02 11:18:14;;;;;;;5.17;2.23;;;;;;;;;;6289593;28;20221;-77
2022/01/02 11:21:20;;;;;;;4.53;2.30;;;;;;;;;;6289730;28;20193;-77
2022/01/02 11:24:28;;;;;;;6.40;2.30;;;;;;;;;;6288299;28;20191;-77
2022/01/02 11:27:40;;;;;;;2.23;2.13;;;;;;;;;;6289390;28;20190;-77
2022/01/02 11:30:44;;;;;;;2.17;1.93;;;;;;;;;;6288604;28;20187;-77
2022/01/02 11:33:48;;;;;;;2.00;2.00;;;;;;;;;;6290903;28;20187;-78
2022/01/02 11:36:54;;;;;;;2.10;2.10;;;;;;;;;;6287942;28;20411;-76
2022/01/02 11:40:01;;;;;;;2.30;2.20;;;;;;;;;;6289787;28;20455;-76
2022/01/02 11:43:06;;;;;;;5.10;2.20;;;;;;;;;;6286696;28;20504;-76
2022/01/02 11:46:15;;;;;;;5.50;2.40;;;;;;;;;;6287289;28;20410;-78
2022/01/02 11:49:28;;;;;;;2.60;2.03;;;;;;;;;;6287676;28;20188;-76
2022/01/02 11:52:34;;;;;;;2.37;2.27;;;;;;;;;;6287004;28;20477;-79
2022/01/02 11:55:40;;;;;;;4.13;2.30;;;;;;;;;;6291025;28;20209;-79
2022/01/02 11:58:50;;;;;;;5.43;2.67;;;;;;;;;;6289857;28;20213;-81
2022/01/02 12:01:57;;;;;;;3.87;2.80;;;;;;;;;;6290316;28;20219;-79
2022/01/02 12:05:12;;;;;;;2.03;1.93;;;;;;;;;;6289662;28;20184;-79
2022/01/02 12:08:35;;;;;;;2.93;2.30;;;;;;;;;;6290151;28;20507;-79
2022/01/02 12:11:49;;;;;;;3.20;2.27;;;;;;;;;;6290133;28;20250;-79
2022/01/02 12:14:54;;;;;;;2.37;2.23;;;;;;;;;;6290703;28;20389;-80
2022/01/02 12:18:07;;;;;;;2.40;2.20;;;;;;;;;;6291532;28;20218;-80
2022/01/02 12:21:14;;;;;;;2.30;2.20;;;;;;;;;;6291302;28;20184;-80
2022/01/02 12:24:29;;;;;;;3.33;2.70;;;;;;;;;;6290837;28;20194;-80
2022/01/02 12:27:35;;;;;;;2.43;2.33;;;;;;;;;;6290573;28;20441;-80
2022/01/02 12:30:40;;;;;;;3.23;2.93;;;;;;;;;;6292104;28;20189;-79
2022/01/02 12:33:46;;;;;;;5.67;2.53;;;;;;;;;;6297232;28;20186;-79
2022/01/02 12:36:51;;;;;;;4.87;2.60;;;;;;;;;;6296804;28;20414;-79
2022/01/02 12:39:55;;;;;;;2.87;2.57;;;;;;;;;;6295018;28;20197;-78
2022/01/02 12:43:01;;;;;;;3.03;2.60;;;;;;;;;;6292172;28;20233;-78
2022/01/02 12:46:05;;;;;;;6.63;2.53;;;;;;;;;;6290643;28;20194;-79
2022/01/02 12:49:16;;;;;;;3.20;2.70;;;;;;;;;;6287077;28;20241;-79
2022/01/02 12:52:20;;;;;;;6.73;2.67;;;;;;;;;;6287941;28;20187;-79
2022/01/02 12:55:25;;;;;;;3.83;2.33;;;;;;;;;;6287934;28;20257;-79
2022/01/02 12:58:33;;;;;;;5.27;2.47;;;;;;;;;;6288141;28;20286;-79
2022/01/02 13:01:48;;;;;;;8.03;2.90;;;;;;;;;;6288610;28;20186;-79
2022/01/02 13:04:53;;;;;;;6.10;2.80;;;;;;;;;;6288585;28;20254;-79
2022/01/02 13:08:01;;;;;;;3.23;2.80;;;;;;;;;;6288968;28;20248;-79
2022/01/02 13:11:09;;;;;;;6.10;2.97;;;;;;;;;;6288998;28;20186;-79
2022/01/02 13:14:15;;;;;;;4.93;2.70;;;;;;;;;;6290240;28;20185;-78
2022/01/02 13:17:23;;;;;;;3.33;2.87;;;;;;;;;;6292912;28;20446;-79
2022/01/02 13:20:39;;;;;;;9.87;3.50;;;;;;;;;;6292930;28;20425;-79
2022/01/02 13:23:43;;;;;;;5.03;3.50;;;;;;;;;;6294135;28;20237;-79
2022/01/02 13:26:47;;;;;;;8.90;3.67;;;;;;;;;;6293500;28;20186;-79
2022/01/02 13:29:57;;;;;;;4.93;3.50;;;;;;;;;;6292935;28;20261;-79
2022/01/02 13:33:02;;;;;;;11.30;3.53;;;;;;;;;;6293502;28;20266;-79
2022/01/02 13:36:11;;;;;;;4.13;3.77;;;;;;;;;;6292616;28;20198;-79
2022/01/02 13:39:15;;;;;;;9.63;3.33;;;;;;;;;;6293469;28;20226;-79
2022/01/02 13:42:19;;;;;;;4.63;3.47;;;;;;;;;;6293102;28;20194;-79
2022/01/02 13:45:26;;;;;;;4.70;3.07;;;;;;;;;;6293158;28;20253;-79
2022/01/02 13:48:35;;;;;;;7.27;3.17;;;;;;;;;;6291633;28;20471;-79
2022/01/02 13:51:39;;;;;;;3.57;2.77;;;;;;;;;;6292546;28;20218;-79
2022/01/02 13:54:44;;;;;;;8.73;3.33;;;;;;;;;;6292769;28;20218;-79
2022/01/02 13:57:48;;;;;;;10.83;3.57;;;;;;;;;;6291722;28;20238;-79
2022/01/02 14:00:56;;;;;;;5.53;3.27;;;;;;;;;;6291833;28;20187;-79
2022/01/02 14:04:02;;;;;;;5.17;3.03;;;;;;;;;;6292355;28;20298;-79
2022/01/02 14:07:08;;;;;;;12.63;4.10;;;;;;;;;;6292513;28;20188;-79
2022/01/02 14:10:13;;;;;;;12.37;3.80;;;;;;;;;;6293070;28;20480;-79
2022/01/02 14:13:17;;;;;;;10.13;4.30;;;;;;;;;;6292954;28;20386;-79
2022/01/02 14:16:43;;;;;;;5.70;3.73;;;;;;;;;;6291982;28;20218;-76
2022/01/02 14:19:48;;;;;;;10.97;3.87;;;;;;;;;;6288495;28;20278;-76
2022/01/02 14:22:52;;;;;;;8.77;4.37;;;;;;;;;;6290177;28;20249;-76
2022/01/02 14:25:57;;;;;;;6.13;3.67;;;;;;;;;;6289711;28;20185;-78
2022/01/02 14:29:03;;;;;;;9.13;3.70;;;;;;;;;;6292393;28;20218;-80
2022/01/02 14:32:09;;;;;;;5.80;3.70;;;;;;;;;;6291777;28;20187;-77
2022/01/02 14:35:15;;;;;;;3.53;3.27;;;;;;;;;;6291148;28;20184;-79
2022/01/02 14:38:19;;;;;;;6.37;3.43;;;;;;;;;;6290609;28;20511;-78
2022/01/02 14:41:24;;;;;;;5.03;3.50;;;;;;;;;;6290231;28;20185;-79
2022/01/02 14:44:28;;;;;;;5.87;3.30;;;;;;;;;;6291846;28;20249;-77
2022/01/02 14:47:35;;;;;;;3.80;3.43;;;;;;;;;;6290874;28;20246;-79
2022/01/02 14:50:39;;;;;;;9.30;3.40;;;;;;;;;;6290095;28;20521;-78
2022/01/02 14:53:43;;;;;;;6.20;3.67;;;;;;;;;;6291415;28;20186;-78
2022/01/02 14:56:47;;;;;;;5.40;3.23;;;;;;;;;;6291752;28;20455;-76
2022/01/02 14:59:51;;;;;;;4.23;3.33;;;;;;;;;;6289907;28;20334;-77
2022/01/02 15:02:57;;;;;;;6.93;3.47;;;;;;;;;;6290510;28;20193;-78
2022/01/02 15:06:03;;;;;;;8.23;3.20;;;;;;;;;;6295505;28;20232;-79
2022/01/02 15:09:08;;;;;;;7.60;3.53;;;;;;;;;;6297441;28;20295;-77
2022/01/02 15:12:12;;;;;;;8.70;3.40;;;;;;;;;;6294792;28;20188;-77
2022/01/02 15:15:17;;;;;;;4.73;3.23;;;;;;;;;;6294452;28;20186;-77
2022/01/02 15:18:23;;;;;;;3.23;2.67;;;;;;;;;;6295125;28;20237;-76
2022/01/02 15:21:28;;;;;;;5.93;3.20;;;;;;;;;;6290379;28;20216;-77
2022/01/02 15:24:32;;;;;;;5.20;3.50;;;;;;;;;;6293832;28;20186;-77
2022/01/02 15:27:38;;;;;;;3.47;3.20;;;;;;;;;;6294271;28;20500;-78
2022/01/02 15:30:44;;;;;;;4.50;3.20;;;;;;;;;;6292906;28;20213;-78
2022/01/02 15:33:51;;;;;;;7.33;3.30;;;;;;;;;;6290352;28;20186;-79
2022/01/02 15:36:55;;;;;;;6.33;3.37;;;;;;;;;;6289589;28;20186;-78
2022/01/02 15:39:59;;;;;;;4.77;3.03;;;;;;;;;;6287601;28;20543;-77
2022/01/02 15:43:04;;;;;;;3.97;3.07;;;;;;;;;;6288156;28;20195;-78
2022/01/02 15:46:10;;;;;;;4.23;3.07;;;;;;;;;;6288950;28;20189;-76
2022/01/02 15:49:15;;;;;;;3.73;2.70;;;;;;;;;;6287930;28;20240;-79
2022/01/02 15:52:20;;;;;;;3.70;3.40;;;;;;;;;;6289050;28;20261;-78
2022/01/02 15:55:25;;;;;;;5.90;3.10;;;;;;;;;;6288131;28;20194;-78
2022/01/02 15:58:49;;;;;;;3.73;3.27;;;;;;;;;;6288418;28;20214;-79
2022/01/02 16:01:53;;;;;;;4.67;2.87;;;;;;;;;;6289568;28;20493;-78
2022/01/02 16:04:59;;;;;;;4.73;3.13;;;;;;;;;;6289268;28;20265;-80
2022/01/02 16:08:04;;;;;;;3.57;3.27;;;;;;;;;;6290291;28;20279;-79
2022/01/02 16:11:09;;;;;;;4.17;3.50;;;;;;;;;;6288026;28;20185;-78
2022/01/02 16:14:13;;;;;;;5.40;3.10;;;;;;;;;;6288661;28;20268;-79
2022/01/02 16:17:18;;;;;;;11.03;3.83;;;;;;;;;;6288303;28;20187;-79
2022/01/02 16:20:23;;;;;;;6.27;3.47;;;;;;;;;;6290025;28;20214;-79
2022/01/02 16:23:28;;;;;;;4.17;3.17;;;;;;;;;;6287088;28;20357;-79
2022/01/02 16:26:32;;;;;;;5.03;3.53;;;;;;;;;;6288009;28;20217;-79
2022/01/02 16:29:36;;;;;;;7.23;3.90;;;;;;;;;;6287806;28;20294;-77
2022/01/02 16:32:41;;;;;;;3.40;3.20;;;;;;;;;;6286978;28;20474;-78
2022/01/02 16:35:47;;;;;;;4.43;3.53;;;;;;;;;;6288371;28;20498;-78
2022/01/02 16:38:52;;;;;;;3.93;3.40;;;;;;;;;;6288692;28;20191;-79
2022/01/02 16:41:56;;;;;;;3.80;3.40;;;;;;;;;;6289337;28;20186;-78
2022/01/02 16:45:00;;;;;;;7.30;3.23;;;;;;;;;;6286971;28;20576;-78
2022/01/02 16:48:05;;;;;;;4.83;3.50;;;;;;;;;;6289264;28;20239;-81
2022/01/02 16:51:12;;;;;;;5.63;3.77;;;;;;;;;;6293233;28;20188;-79
2022/01/02 16:54:16;;;;;;;5.20;3.27;;;;;;;;;;6292819;28;20274;-80
2022/01/02 16:57:20;;;;;;;6.43;3.20;;;;;;;;;;6293077;28;20247;-79
2022/01/02 17:00:25;;;;;;;6.07;3.50;;;;;;;;;;6293552;28;20277;-80
2022/01/02 17:03:29;;;;;;;6.20;3.40;;;;;;;;;;6291873;28;20241;-79
2022/01/02 17:06:35;;;;;;;3.97;3.67;;;;;;;;;;6293900;28;20187;-79
2022/01/02 17:09:39;;;;;;;6.20;3.57;;;;;;;;;;6293514;28;20206;-79
2022/01/02 17:12:44;;;;;;;3.87;3.40;;;;;;;;;;6293954;28;20215;-79
2022/01/02 17:15:53;;;;;;;5.60;3.70;;;;;;;;;;6293700;28;20336;-79
2022/01/02 17:18:58;;;;;;;3.90;3.53;;;;;;;;;;6291921;28;20261;-80
2022/01/02 17:22:04;;;;;;;4.90;3.17;;;;;;;;;;6293140;28;20263;-80
2022/01/02 17:25:09;;;;;;;3.90;3.60;;;;;;;;;;6292943;28;20225;-79
2022/01/02 17:28:18;;;;;;;6.37;4.00;;;;;;;;;;6293231;28;20247;-79
2022/01/02 17:31:22;;;;;;;6.67;3.80;;;;;;;;;;6293748;28;20206;-79
2022/01/02 17:34:27;;;;;;;11.23;4.40;;;;;;;;;;6293119;28;20188;-79
2022/01/02 17:37:33;;;;;;;6.90;4.17;;;;;;;;;;6291933;28;20262;-79
2022/01/02 17:40:38;;;;;;;4.03;3.63;;;;;;;;;;6292282;28;20214;-79
2022/01/02 17:43:43;;;;;;;5.67;3.90;;;;;;;;;;6292922;28;20218;-79
2022/01/02 17:46:47;;;;;;;4.87;4.33;;;;;;;;;;6292261;28;20235;-79
2022/01/02 17:49:52;;;;;;;5.23;4.13;;;;;;;;;;6291747;28;20195;-79
2022/01/02 17:52:57;;;;;;;4.53;4.23;;;;;;;;;;6291693;28;20213;-79
2022/01/02 17:56:02;;;;;;;4.20;3.90;;;;;;;;;;6292463;28;20198;-79
2022/01/02 17:59:07;;;;;;;7.10;4.33;;;;;;;;;;6291037;28;20486;-79
2022/01/02 18:02:12;;;;;;;9.33;4.03;;;;;;;;;;6291309;28;20225;-79
2022/01/02 18:05:16;;;;;;;6.87;3.70;;;;;;;;;;6290989;28;20211;-79
2022/01/02 18:08:22;;;;;;;7.00;4.23;;;;;;;;;;6291434;28;20203;-79
2022/01/02 18:11:28;;;;;;;5.37;4.07;;;;;;;;;;6291644;28;20227;-79
2022/01/02 18:14:32;;;;;;;7.00;4.00;;;;;;;;;;6291935;28;20254;-79
2022/01/02 18:17:37;;;;;;;5.30;4.00;;;;;;;;;;6291887;28;20187;-79
2022/01/02 18:20:41;;;;;;;4.73;4.27;;;;;;;;;;6291049;28;20518;-79
2022/01/02 18:23:54;;;;;;;6.90;4.50;;;;;;;;;;6291989;28;20250;-79
2022/01/02 18:27:02;;;;;;;11.97;4.40;;;;;;;;;;6291865;28;20250;-79
2022/01/02 18:30:09;;;;;;;4.17;3.57;;;;;;;;;;6291578;28;20191;-78
2022/01/02 18:33:14;;;;;;;6.00;4.60;;;;;;;;;;6292377;28;20192;-79
2022/01/02 18:36:19;;;;;;;4.20;3.90;;;;;;;;;;6292357;28;20194;-79
2022/01/02 18:39:24;;;;;;;5.07;4.10;;;;;;;;;;6292142;28;20201;-79